Time;durP1;ratioP1;P1;durP2;ratioP2;P2;SDS_P1;SDS_P2;PMS_P1;PMS_P2;Temp;Humidity;BMP_temperature;BMP_pressure;BME280_temperature;BME280_humidity;BME280_pressure;Samples;Min_cycle;Max_cycle;Signal;HPM_P1;HPM_P2
2022/04/18 00:01:49;;;;;;;11.90;7.88;;;10.10;79.70;;;;;;5037696;28;20029;-82
2022/04/18 00:04:15;;;;;;;11.02;7.53;;;10.10;79.90;;;;;;5020298;28;20030;-85
2022/04/18 00:06:41;;;;;;;12.60;8.32;;;10.10;80.10;;;;;;5037442;28;20048;-84
2022/04/18 00:09:07;;;;;;;11.27;7.72;;;10.00;80.10;;;;;;5037170;28;20033;-83
2022/04/18 00:11:33;;;;;;;11.98;8.43;;;10.00;80.20;;;;;;5037242;28;20099;-85
2022/04/18 00:13:58;;;;;;;10.80;7.75;;;10.00;80.40;;;;;;5038267;28;20064;-85
2022/04/18 00:16:25;;;;;;;12.27;8.63;;;9.90;80.50;;;;;;5020390;28;20033;-85
2022/04/18 00:18:51;;;;;;;11.27;8.02;;;9.90;81.40;;;;;;5037367;28;20048;-85
2022/04/18 00:21:17;;;;;;;11.70;8.70;;;9.80;80.80;;;;;;5019616;28;20442;-86
2022/04/18 00:23:43;;;;;;;12.02;8.63;;;9.80;81.00;;;;;;5019683;28;20033;-88
2022/04/18 00:26:09;;;;;;;11.32;8.35;;;9.80;81.20;;;;;;5052091;28;20179;-87
2022/04/18 00:28:35;;;;;;;12.13;8.48;;;9.80;81.30;;;;;;5019349;28;20117;-86
2022/04/18 00:31:00;;;;;;;10.02;8.15;;;9.70;82.00;;;;;;5037150;28;20033;-85
2022/04/18 00:33:26;;;;;;;10.85;8.73;;;9.70;81.60;;;;;;5036841;28;20037;-86
2022/04/18 00:35:52;;;;;;;13.02;9.48;;;9.60;81.80;;;;;;5036475;28;20495;-87
2022/04/18 00:38:19;;;;;;;13.00;8.60;;;9.60;82.10;;;;;;5019167;28;20124;-85
2022/04/18 00:40:44;;;;;;;11.38;7.95;;;9.50;82.40;;;;;;5019455;28;20029;-85
2022/04/18 00:43:10;;;;;;;11.93;9.18;;;9.50;82.50;;;;;;5019190;28;20033;-88
2022/04/18 00:45:36;;;;;;;13.60;8.35;;;9.50;82.70;;;;;;5052041;28;20513;-89
2022/04/18 00:48:02;;;;;;;10.80;7.78;;;9.40;82.90;;;;;;5018627;28;20064;-86
2022/04/18 00:50:31;;;;;;;12.10;8.88;;;9.40;83.00;;;;;;5037294;28;20541;-85
2022/04/18 00:52:57;;;;;;;11.23;8.07;;;9.40;83.10;;;;;;5051757;28;20037;-86
2022/04/18 00:55:26;;;;;;;12.20;8.55;;;9.30;83.20;;;;;;5051714;28;20029;-88
2022/04/18 00:57:54;;;;;;;11.82;8.30;;;9.30;83.30;;;;;;5051518;28;20491;-84
2022/04/18 01:00:20;;;;;;;12.77;8.20;;;9.20;83.40;;;;;;5051659;28;20029;-84
2022/04/18 01:02:46;;;;;;;11.68;8.45;;;9.20;83.60;;;;;;5018033;28;20056;-85
2022/04/18 01:05:11;;;;;;;13.27;8.65;;;9.20;83.90;;;;;;5050906;28;20123;-85
2022/04/18 01:07:38;;;;;;;11.75;8.18;;;9.10;84.00;;;;;;5035902;28;20107;-87
2022/04/18 01:10:05;;;;;;;11.73;8.48;;;9.10;84.20;;;;;;5051140;28;20092;-86
2022/04/18 01:12:31;;;;;;;10.80;7.97;;;9.00;84.50;;;;;;5022295;28;20083;-83
2022/04/18 01:14:57;;;;;;;11.82;8.45;;;9.10;84.60;;;;;;5040597;28;20042;-86
2022/04/18 01:17:22;;;;;;;10.63;8.07;;;9.00;84.70;;;;;;5017738;28;20041;-85
2022/04/18 01:19:48;;;;;;;11.70;8.25;;;9.00;84.90;;;;;;5018156;28;20057;-84
2022/04/18 01:22:14;;;;;;;13.75;8.93;;;8.90;84.90;;;;;;5017901;28;20037;-86
2022/04/18 01:30:11;;;;;;;11.05;8.05;;;8.90;85.30;;;;;;5035565;28;20033;-85
2022/04/18 01:32:37;;;;;;;13.10;8.40;;;8.80;85.50;;;;;;5035174;28;20471;-84
2022/04/18 01:35:04;;;;;;;11.05;7.90;;;8.80;85.60;;;;;;5017688;28;20037;-86
2022/04/18 01:37:29;;;;;;;11.60;7.97;;;8.70;85.70;;;;;;5038502;28;20069;-84
2022/04/18 01:39:56;;;;;;;11.15;8.45;;;8.70;86.00;;;;;;5020138;28;20026;-85
2022/04/18 01:42:21;;;;;;;11.00;8.10;;;8.60;86.70;;;;;;5017499;28;20578;-86
2022/04/18 01:44:47;;;;;;;12.25;8.65;;;8.60;86.30;;;;;;5035919;28;20061;-84
2022/04/18 01:47:13;;;;;;;13.23;8.50;;;8.60;86.40;;;;;;5036802;28;20033;-85
2022/04/18 01:49:39;;;;;;;11.25;8.32;;;8.50;86.50;;;;;;5020752;28;20033;-86
2022/04/18 01:52:04;;;;;;;10.23;7.45;;;8.50;86.60;;;;;;5020062;28;20038;-86
2022/04/18 01:54:30;;;;;;;10.30;7.32;;;8.50;86.70;;;;;;5043040;28;20025;-80
2022/04/18 01:56:57;;;;;;;10.07;7.38;;;8.50;86.90;;;;;;5030301;28;20071;-80
2022/04/18 01:59:22;;;;;;;11.05;8.00;;;8.50;87.10;;;;;;5047700;28;20026;-79
2022/04/18 02:01:49;;;;;;;9.73;7.13;;;8.40;87.20;;;;;;5031475;28;20037;-84
2022/04/18 02:04:15;;;;;;;10.15;7.60;;;8.40;87.90;;;;;;5046748;28;20092;-84
2022/04/18 02:06:40;;;;;;;11.90;7.28;;;8.40;87.60;;;;;;5049897;28;20033;-84
2022/04/18 02:09:06;;;;;;;13.30;8.00;;;8.30;87.80;;;;;;5037381;28;20038;-81
2022/04/18 02:11:32;;;;;;;9.93;7.47;;;8.30;88.00;;;;;;5036870;28;20030;-80
2022/04/18 02:13:58;;;;;;;11.73;7.60;;;8.20;88.10;;;;;;5040087;28;20060;-83
2022/04/18 02:16:24;;;;;;;11.73;6.72;;;8.20;88.40;;;;;;5036368;28;20053;-79
2022/04/18 02:18:50;;;;;;;11.25;7.32;;;8.10;88.50;;;;;;5032552;28;20022;-84
2022/04/18 02:21:17;;;;;;;10.65;7.60;;;8.10;88.60;;;;;;5037942;28;20029;-83
2022/04/18 02:23:43;;;;;;;12.63;7.45;;;8.10;88.80;;;;;;5039115;28;20048;-82
2022/04/18 02:26:09;;;;;;;12.07;8.07;;;8.00;88.90;;;;;;5056153;28;20037;-83
2022/04/18 02:28:35;;;;;;;12.95;7.95;;;8.00;89.80;;;;;;5054947;28;20028;-84
2022/04/18 02:31:02;;;;;;;10.23;6.95;;;7.90;89.40;;;;;;5062696;28;20036;-83
2022/04/18 02:33:27;;;;;;;11.63;8.07;;;7.90;89.60;;;;;;5047899;28;20053;-87
2022/04/18 02:35:53;;;;;;;12.70;7.60;;;7.90;90.00;;;;;;5046909;28;20042;-84
2022/04/18 02:38:19;;;;;;;12.35;7.53;;;7.80;90.10;;;;;;5028861;28;20108;-85
2022/04/18 02:40:45;;;;;;;11.60;7.70;;;7.70;90.10;;;;;;5025569;28;20089;-84
2022/04/18 02:43:12;;;;;;;12.43;8.07;;;7.70;90.20;;;;;;5043837;28;20638;-86
2022/04/18 02:45:38;;;;;;;10.20;7.28;;;7.60;90.30;;;;;;5059082;28;20026;-88
2022/04/18 02:48:04;;;;;;;10.77;8.35;;;7.60;90.50;;;;;;5051744;28;20045;-86
2022/04/18 02:50:31;;;;;;;10.20;7.85;;;7.50;90.60;;;;;;5035179;28;20112;-83
2022/04/18 02:52:57;;;;;;;12.23;8.80;;;7.40;90.80;;;;;;5034878;28;20041;-87
2022/04/18 02:55:25;;;;;;;10.05;7.88;;;7.40;90.90;;;;;;5050146;28;20038;-87
2022/04/18 02:57:51;;;;;;;12.27;7.60;;;7.40;91.00;;;;;;5016665;28;20125;-86
2022/04/18 03:00:17;;;;;;;13.32;8.27;;;7.30;91.20;;;;;;5016902;28;20053;-85
2022/04/18 03:02:43;;;;;;;11.40;7.78;;;7.20;91.30;;;;;;5034241;28;20033;-88
2022/04/18 03:05:10;;;;;;;11.45;8.60;;;7.30;91.50;;;;;;5049753;28;20032;-85
2022/04/18 03:07:36;;;;;;;11.82;8.48;;;7.20;91.60;;;;;;5034098;28;20042;-87
2022/04/18 03:10:03;;;;;;;11.50;8.30;;;7.20;91.70;;;;;;5049725;28;20060;-87
2022/04/18 03:12:29;;;;;;;12.00;7.93;;;7.10;91.80;;;;;;5049912;28;20071;-86
2022/04/18 03:14:55;;;;;;;11.13;8.40;;;7.10;91.90;;;;;;5016974;28;20438;-87
2022/04/18 03:17:21;;;;;;;11.75;8.65;;;7.00;92.00;;;;;;5034083;28;20116;-86
2022/04/18 03:19:46;;;;;;;13.52;8.90;;;7.00;92.20;;;;;;5016682;28;20017;-86
2022/04/18 03:22:12;;;;;;;10.55;8.18;;;7.00;92.40;;;;;;5035060;28;20051;-87
2022/04/18 03:24:38;;;;;;;10.77;8.00;;;6.90;92.50;;;;;;5016642;28;20038;-87
2022/04/18 03:27:04;;;;;;;10.25;7.25;;;6.90;92.50;;;;;;5017388;28;20048;-87
2022/04/18 03:29:31;;;;;;;10.60;7.72;;;6.90;92.70;;;;;;5019302;28;20139;-88
2022/04/18 03:31:57;;;;;;;12.50;8.15;;;6.90;92.80;;;;;;5039041;28;20029;-84
2022/04/18 03:34:23;;;;;;;9.93;7.78;;;6.90;93.00;;;;;;5055836;28;20112;-86
2022/04/18 03:39:54;;;;;;;12.23;8.07;;;6.80;93.20;;;;;;5047656;28;20084;-82
2022/04/18 03:42:32;;;;;;;10.93;8.40;;;6.80;93.40;;;;;;5028635;28;20041;-81
2022/04/18 03:45:02;;;;;;;11.32;8.25;;;6.80;93.50;;;;;;5028779;28;20038;-81
2022/04/18 03:47:28;;;;;;;10.60;8.25;;;6.80;93.60;;;;;;5059519;28;20044;-85
2022/04/18 03:49:54;;;;;;;11.35;8.65;;;6.80;93.60;;;;;;5021352;28;20029;-85
2022/04/18 03:52:20;;;;;;;13.13;9.52;;;6.70;93.70;;;;;;5054025;28;20030;-87
2022/04/18 03:54:46;;;;;;;11.80;8.50;;;6.70;93.80;;;;;;5053994;28;20060;-84
2022/04/18 03:57:13;;;;;;;13.18;9.05;;;6.70;93.90;;;;;;5037712;28;20416;-85
2022/04/18 03:59:39;;;;;;;13.70;9.10;;;6.80;94.00;;;;;;5052927;28;20030;-86
2022/04/18 04:02:05;;;;;;;12.45;9.48;;;6.70;94.40;;;;;;5019096;28;20038;-85
2022/04/18 04:04:30;;;;;;;12.02;8.85;;;6.70;94.20;;;;;;5019179;28;20033;-87
2022/04/18 04:06:56;;;;;;;12.90;8.77;;;6.70;94.30;;;;;;5037028;28;20048;-86
2022/04/18 04:09:22;;;;;;;11.95;8.63;;;6.70;94.40;;;;;;5036630;28;20033;-86
2022/04/18 04:11:47;;;;;;;11.38;8.50;;;6.70;94.50;;;;;;5036628;28;20521;-87
2022/04/18 04:14:13;;;;;;;13.55;9.05;;;6.60;94.50;;;;;;5037087;28;20036;-84
2022/04/18 04:16:39;;;;;;;12.00;8.95;;;6.60;94.60;;;;;;5037637;28;20038;-83
2022/04/18 04:19:06;;;;;;;10.57;7.90;;;6.60;94.70;;;;;;5019462;28;20034;-87
2022/04/18 04:21:33;;;;;;;11.18;8.10;;;6.60;94.80;;;;;;5037129;28;20065;-86
2022/04/18 04:23:59;;;;;;;12.77;8.52;;;6.60;94.90;;;;;;5037955;28;20063;-86
2022/04/18 04:26:25;;;;;;;12.63;8.68;;;6.60;95.00;;;;;;5036153;28;20037;-86
2022/04/18 04:28:50;;;;;;;12.07;8.82;;;6.60;95.10;;;;;;5036152;28;20483;-86
2022/04/18 04:31:16;;;;;;;12.65;9.20;;;6.50;95.10;;;;;;5018356;28;20112;-87
2022/04/18 04:33:42;;;;;;;12.00;9.02;;;6.50;95.30;;;;;;5036415;28;20065;-87
2022/04/18 04:36:07;;;;;;;13.57;9.25;;;6.40;95.40;;;;;;5018512;28;20434;-88
2022/04/18 04:38:33;;;;;;;14.00;8.93;;;6.40;95.50;;;;;;5036571;28;20041;-87
2022/04/18 04:40:58;;;;;;;13.63;9.73;;;6.40;95.70;;;;;;5018269;28;20037;-87
2022/04/18 04:43:28;;;;;;;13.57;9.05;;;6.40;95.80;;;;;;5019538;28;20408;-87
2022/04/18 04:45:55;;;;;;;12.60;8.90;;;6.30;95.90;;;;;;5037194;28;20025;-85
2022/04/18 04:48:24;;;;;;;13.13;9.25;;;6.30;96.00;;;;;;5036175;28;20093;-87
2022/04/18 04:50:50;;;;;;;12.00;8.02;;;6.30;96.10;;;;;;5036916;28;20038;-87
2022/04/18 04:53:16;;;;;;;12.93;9.50;;;6.30;96.20;;;;;;5035966;28;20080;-87
2022/04/18 04:55:42;;;;;;;12.02;8.45;;;6.30;96.30;;;;;;5051236;28;20071;-87
2022/04/18 04:58:11;;;;;;;12.70;9.05;;;6.30;96.40;;;;;;5018532;28;20061;-85
2022/04/18 05:00:38;;;;;;;12.98;8.52;;;6.30;96.50;;;;;;5051142;28;20040;-87
2022/04/18 05:03:04;;;;;;;12.60;8.57;;;6.30;96.60;;;;;;5035713;28;20446;-85
2022/04/18 05:05:31;;;;;;;12.57;8.52;;;6.40;96.70;;;;;;5035881;28;20388;-87
2022/04/18 05:07:57;;;;;;;13.75;8.65;;;6.40;96.80;;;;;;5018227;28;20040;-84
2022/04/18 05:10:23;;;;;;;12.50;8.55;;;6.40;97.10;;;;;;5018569;28;20030;-86
2022/04/18 05:12:48;;;;;;;10.63;8.40;;;6.30;96.90;;;;;;5017841;28;20033;-86
2022/04/18 05:15:14;;;;;;;12.68;8.30;;;6.40;97.00;;;;;;5018443;28;20030;-85
2022/04/18 05:17:40;;;;;;;12.77;8.50;;;6.50;97.10;;;;;;5019820;28;20029;-83
2022/04/18 05:20:06;;;;;;;10.82;8.23;;;6.40;97.10;;;;;;5036164;28;20040;-87
2022/04/18 05:22:32;;;;;;;12.07;8.18;;;6.40;97.20;;;;;;5050982;28;20029;-86
2022/04/18 05:24:58;;;;;;;11.52;8.05;;;6.50;97.30;;;;;;5035003;28;20044;-86
2022/04/18 05:27:24;;;;;;;13.52;10.13;;;6.50;97.30;;;;;;5035035;28;20036;-85
2022/04/18 05:29:51;;;;;;;13.70;8.20;;;6.60;97.60;;;;;;5017399;28;20033;-83
2022/04/18 05:32:16;;;;;;;11.13;8.13;;;6.60;97.40;;;;;;5050524;28;20058;-84
2022/04/18 05:34:42;;;;;;;12.02;8.63;;;6.60;97.40;;;;;;5017508;28;20439;-85
2022/04/18 05:37:08;;;;;;;11.23;8.15;;;6.70;97.40;;;;;;5050500;28;20148;-84
2022/04/18 05:39:34;;;;;;;11.60;8.30;;;6.70;97.40;;;;;;5035040;28;20060;-84
2022/04/18 05:42:00;;;;;;;11.18;8.25;;;6.80;97.50;;;;;;5013723;28;20124;-87
2022/04/18 05:44:26;;;;;;;11.55;7.70;;;6.90;97.50;;;;;;5031918;28;20040;-85
2022/04/18 05:46:52;;;;;;;10.07;7.60;;;6.90;97.40;;;;;;5038099;28;20100;-83
2022/04/18 05:49:17;;;;;;;11.88;7.60;;;7.00;97.30;;;;;;5041847;28;20033;-81
2022/04/18 05:51:43;;;;;;;11.30;8.25;;;7.10;97.30;;;;;;5041737;28;20045;-82
2022/04/18 05:54:09;;;;;;;11.70;8.88;;;7.20;97.30;;;;;;5017221;28;20060;-85
2022/04/18 05:56:35;;;;;;;12.25;9.20;;;7.30;97.50;;;;;;5047041;28;20052;-83
2022/04/18 05:59:02;;;;;;;10.73;8.10;;;7.40;97.40;;;;;;5032003;28;20131;-83
2022/04/18 06:01:30;;;;;;;11.65;8.10;;;7.40;97.20;;;;;;5047758;28;20044;-87
2022/04/18 06:03:56;;;;;;;11.40;7.43;;;7.50;97.10;;;;;;5015556;28;20500;-84
2022/04/18 06:06:22;;;;;;;10.32;7.20;;;7.60;97.10;;;;;;5014978;28;20063;-85
2022/04/18 06:08:48;;;;;;;8.82;6.43;;;7.70;97.00;;;;;;5032289;28;20033;-86
2022/04/18 06:11:13;;;;;;;8.65;6.07;;;7.80;97.00;;;;;;5015233;28;20095;-85
2022/04/18 06:13:40;;;;;;;10.95;7.57;;;7.90;97.00;;;;;;5014862;28;20033;-87
2022/04/18 06:16:06;;;;;;;9.77;6.57;;;7.90;97.00;;;;;;5014522;28;20037;-85
2022/04/18 06:18:32;;;;;;;9.65;6.65;;;8.00;96.90;;;;;;5047504;28;20041;-83
2022/04/18 06:20:58;;;;;;;9.93;6.07;;;8.10;96.80;;;;;;5032397;28;20029;-86
2022/04/18 06:23:24;;;;;;;10.00;5.90;;;8.20;96.80;;;;;;5014414;28;20426;-87
2022/04/18 06:25:49;;;;;;;8.75;5.97;;;8.30;96.70;;;;;;5031415;28;20041;-86
2022/04/18 06:28:15;;;;;;;10.27;6.30;;;8.40;96.60;;;;;;5015283;28;20486;-86
2022/04/18 06:30:41;;;;;;;7.85;5.93;;;8.50;96.70;;;;;;5015263;28;20042;-84
2022/04/18 06:33:11;;;;;;;9.07;5.68;;;8.60;96.60;;;;;;5021298;28;20025;-83
2022/04/18 06:35:37;;;;;;;10.40;6.00;;;8.70;96.40;;;;;;5051120;28;20483;-85
2022/04/18 06:38:03;;;;;;;9.57;6.82;;;8.70;96.30;;;;;;5014405;28;20063;-83
2022/04/18 06:40:28;;;;;;;11.10;6.40;;;8.90;95.90;;;;;;5014589;28;20068;-84
2022/04/18 06:42:54;;;;;;;9.32;5.88;;;9.00;96.00;;;;;;5013917;28;20041;-84
2022/04/18 06:45:20;;;;;;;10.60;6.38;;;9.10;95.90;;;;;;5013623;28;20033;-84
2022/04/18 06:47:45;;;;;;;9.50;6.03;;;9.10;95.70;;;;;;5014263;28;20041;-84
2022/04/18 06:50:12;;;;;;;8.65;6.53;;;9.20;95.60;;;;;;5032243;28;20029;-84
2022/04/18 06:52:40;;;;;;;9.80;6.05;;;9.20;95.10;;;;;;5030528;28;20180;-82
2022/04/18 06:55:07;;;;;;;7.18;5.55;;;9.30;95.20;;;;;;5013057;28;20032;-85
2022/04/18 06:57:33;;;;;;;8.05;5.40;;;9.30;95.10;;;;;;5045437;28;20061;-86
2022/04/18 06:59:59;;;;;;;8.93;5.60;;;9.40;95.10;;;;;;5012465;28;20037;-84
2022/04/18 07:02:24;;;;;;;10.45;6.40;;;9.40;95.20;;;;;;5030561;28;20042;-85
2022/04/18 07:04:50;;;;;;;10.27;7.18;;;9.50;94.50;;;;;;5012282;28;20087;-85
2022/04/18 07:07:16;;;;;;;9.27;6.00;;;9.70;94.20;;;;;;5012392;28;20068;-84
2022/04/18 07:09:42;;;;;;;9.82;5.80;;;9.80;94.10;;;;;;5012166;28;20029;-84
2022/04/18 07:12:08;;;;;;;9.20;6.03;;;9.90;94.20;;;;;;5012572;28;20041;-86
2022/04/18 07:14:36;;;;;;;8.70;5.93;;;9.90;93.90;;;;;;5029821;28;20061;-85
2022/04/18 07:17:02;;;;;;;7.82;5.45;;;10.00;93.80;;;;;;5012468;28;20439;-85
2022/04/18 07:19:31;;;;;;;6.22;4.47;;;10.10;93.80;;;;;;5045743;28;20056;-83
2022/04/18 07:21:57;;;;;;;7.45;4.75;;;10.20;93.90;;;;;;5012017;28;20034;-82
2022/04/18 07:24:23;;;;;;;6.65;4.25;;;10.30;93.80;;;;;;5011921;28;20116;-83
2022/04/18 07:26:49;;;;;;;8.02;4.25;;;10.30;93.80;;;;;;5045116;28;20116;-86
2022/04/18 07:29:15;;;;;;;6.82;4.00;;;10.40;93.60;;;;;;5012286;28;20065;-86
2022/04/18 07:31:41;;;;;;;6.35;3.67;;;10.50;93.70;;;;;;5012090;28;20478;-85
2022/04/18 07:34:06;;;;;;;6.85;3.85;;;10.60;93.70;;;;;;5011720;28;20040;-87
2022/04/18 07:36:32;;;;;;;7.72;3.95;;;10.70;93.50;;;;;;5011884;28;20054;-85
2022/04/18 07:38:58;;;;;;;6.07;3.80;;;10.70;92.80;;;;;;5045047;28;20403;-83
2022/04/18 07:41:26;;;;;;;7.38;3.35;;;10.90;92.70;;;;;;5029827;28;20033;-84
2022/04/18 07:43:53;;;;;;;6.20;3.30;;;11.00;92.80;;;;;;5029552;28;20145;-82
2022/04/18 07:46:19;;;;;;;5.82;2.90;;;11.00;92.90;;;;;;5045567;28;20578;-82
2022/04/18 07:48:47;;;;;;;5.30;3.08;;;11.10;92.90;;;;;;5030367;28;20045;-87
2022/04/18 07:53:57;;;;;;;5.47;3.08;;;11.30;92.50;;;;;;5029478;28;20049;-84
2022/04/18 07:56:23;;;;;;;5.05;3.08;;;11.40;92.00;;;;;;5028894;28;20040;-83
2022/04/18 07:58:50;;;;;;;5.30;2.20;;;11.50;92.10;;;;;;5028975;28;20037;-84
2022/04/18 08:01:16;;;;;;;3.60;2.15;;;11.60;92.20;;;;;;5045243;28;20068;-86
2022/04/18 08:03:41;;;;;;;5.32;2.50;;;11.60;92.30;;;;;;5045682;28;20049;-86
2022/04/18 08:06:07;;;;;;;4.00;2.50;;;11.70;92.10;;;;;;5012648;28;20049;-86
2022/04/18 08:08:33;;;;;;;3.75;2.25;;;11.80;92.00;;;;;;5012286;28;20511;-86
2022/04/18 08:10:59;;;;;;;4.82;2.50;;;12.00;92.00;;;;;;5012287;28;20021;-87
2022/04/18 08:13:25;;;;;;;5.55;2.42;;;12.10;91.70;;;;;;5012807;28;20040;-86
2022/04/18 08:15:51;;;;;;;4.28;2.25;;;12.20;91.70;;;;;;5029896;28;20029;-85
2022/04/18 08:18:17;;;;;;;4.32;2.10;;;12.30;91.70;;;;;;5031365;28;20537;-81
2022/04/18 08:20:43;;;;;;;3.40;2.10;;;12.40;91.70;;;;;;5032136;28;20108;-81
2022/04/18 08:23:08;;;;;;;2.38;1.65;;;12.50;91.60;;;;;;5031832;28;20037;-83
2022/04/18 08:25:34;;;;;;;5.13;2.72;;;12.50;91.60;;;;;;5013902;28;20033;-85
2022/04/18 08:28:00;;;;;;;3.80;2.13;;;12.60;90.60;;;;;;5031058;28;20423;-83
2022/04/18 08:30:25;;;;;;;3.22;1.70;;;12.70;91.00;;;;;;5031356;28;20084;-87
2022/04/18 08:32:53;;;;;;;3.45;1.98;;;12.80;91.00;;;;;;5014083;28;20033;-89
2022/04/18 08:35:19;;;;;;;5.28;2.13;;;12.90;90.70;;;;;;5014990;28;20127;-85
2022/04/18 08:37:44;;;;;;;6.47;2.60;;;13.00;90.80;;;;;;5014339;28;20167;-87
2022/04/18 08:40:11;;;;;;;2.97;1.77;;;13.20;89.80;;;;;;5016326;28;20033;-85
2022/04/18 08:42:39;;;;;;;3.10;1.80;;;13.20;90.10;;;;;;5035088;28;20029;-85
2022/04/18 08:45:07;;;;;;;4.47;2.38;;;13.30;90.30;;;;;;5034074;28;20037;-86
2022/04/18 08:53:03;;;;;;;4.45;2.35;;;13.70;86.60;;;;;;5035746;28;20558;-85
2022/04/18 08:55:30;;;;;;;3.50;2.05;;;13.80;86.60;;;;;;5035321;28;20135;-84
2022/04/18 08:57:56;;;;;;;4.45;2.63;;;14.00;86.60;;;;;;5017109;28;20074;-82
2022/04/18 09:00:22;;;;;;;5.03;3.00;;;14.10;83.50;;;;;;5017694;28;20021;-86
2022/04/18 09:02:48;;;;;;;4.43;2.30;;;14.30;84.50;;;;;;5017468;28;20475;-83
2022/04/18 09:05:14;;;;;;;2.97;1.77;;;14.30;84.40;;;;;;5035009;28;20036;-83
2022/04/18 09:07:44;;;;;;;3.67;2.15;;;14.40;85.60;;;;;;5035357;28;20041;-84
2022/04/18 09:10:11;;;;;;;3.17;1.83;;;14.50;85.40;;;;;;5017343;28;20041;-85
2022/04/18 09:12:42;;;;;;;3.20;2.00;;;14.50;85.70;;;;;;5017842;28;20038;-86
2022/04/18 09:15:09;;;;;;;4.18;2.45;;;14.70;85.50;;;;;;5035656;28;20111;-86
2022/04/18 09:17:36;;;;;;;4.80;2.40;;;14.80;85.40;;;;;;5017735;28;20041;-86
2022/04/18 09:20:04;;;;;;;3.90;2.60;;;15.00;83.50;;;;;;5017204;28;20041;-86
2022/04/18 09:22:30;;;;;;;3.78;2.22;;;15.20;82.10;;;;;;5017161;28;20029;-85
2022/04/18 09:24:56;;;;;;;3.83;2.15;;;15.30;82.70;;;;;;5016958;28;20029;-84
2022/04/18 09:27:34;;;;;;;3.22;1.85;;;15.30;83.20;;;;;;5016812;28;20029;-87
2022/04/18 09:30:11;;;;;;;4.40;2.47;;;15.40;83.50;;;;;;5035045;28;20033;-83
2022/04/18 09:32:40;;;;;;;4.20;1.80;;;15.60;82.00;;;;;;5016346;28;20033;-82
2022/04/18 09:35:06;;;;;;;4.72;2.80;;;15.70;82.80;;;;;;5033661;28;20030;-82
2022/04/18 09:37:33;;;;;;;3.45;2.05;;;15.90;81.30;;;;;;5015806;28;20054;-86
2022/04/18 09:39:58;;;;;;;3.42;1.98;;;16.50;82.20;;;;;;5012236;28;20029;-85
2022/04/18 09:42:26;;;;;;;4.05;2.42;;;18.00;82.50;;;;;;5027908;28;20048;-82
2022/04/18 09:44:53;;;;;;;3.05;1.58;;;19.60;79.30;;;;;;5020405;28;20468;-84
2022/04/18 09:47:23;;;;;;;3.30;1.65;;;21.00;78.70;;;;;;5033796;28;20029;-85
2022/04/18 09:49:50;;;;;;;3.33;1.60;;;22.20;77.10;;;;;;5016090;28;20026;-82
2022/04/18 09:52:20;;;;;;;2.72;1.60;;;23.10;74.40;;;;;;5025582;28;20179;-81
2022/04/18 09:54:56;;;;;;;2.30;1.40;;;23.90;72.60;;;;;;5033591;28;20034;-81
2022/04/18 09:57:27;;;;;;;2.63;1.40;;;24.50;71.70;;;;;;5016563;28;20184;-83
2022/04/18 09:59:55;;;;;;;2.42;1.88;;;25.20;71.00;;;;;;5034923;28;20025;-86
2022/04/18 10:02:21;;;;;;;3.22;2.22;;;25.40;67.40;;;;;;5034840;28;20029;-87
2022/04/18 10:04:48;;;;;;;2.67;2.08;;;25.10;62.80;;;;;;5019271;28;20029;-82
2022/04/18 10:07:14;;;;;;;2.85;1.90;;;24.90;63.00;;;;;;5024571;28;20124;-85
2022/04/18 10:09:41;;;;;;;3.13;1.77;;;25.20;63.80;;;;;;5043544;28;20033;-85
2022/04/18 10:12:12;;;;;;;3.95;2.22;;;25.50;63.30;;;;;;5026181;28;20025;-84
2022/04/18 10:14:38;;;;;;;3.10;2.17;;;25.60;61.90;;;;;;5020865;28;20056;-85
2022/04/18 10:17:07;;;;;;;5.85;2.60;;;25.70;60.10;;;;;;5019540;28;20045;-87
2022/04/18 10:20:07;;;;;;;3.80;2.00;;;25.50;57.40;;;;;;5041851;28;20112;-84
2022/04/18 10:22:41;;;;;;;3.30;2.40;;;25.70;59.20;;;;;;5041375;28;20034;-84
2022/04/18 10:25:13;;;;;;;3.22;2.08;;;25.90;57.60;;;;;;5024568;28;20034;-84
2022/04/18 10:27:56;;;;;;;2.33;1.63;;;26.10;57.40;;;;;;5042595;28;20041;-84
2022/04/18 10:30:23;;;;;;;2.83;1.42;;;26.60;58.00;;;;;;5027927;28;20044;-83
2022/04/18 10:32:50;;;;;;;3.67;1.98;;;26.90;57.60;;;;;;5043425;28;20064;-87
2022/04/18 10:35:15;;;;;;;2.55;2.10;;;27.10;57.40;;;;;;5019892;28;20030;-84
2022/04/18 10:37:43;;;;;;;3.50;2.42;;;27.10;55.20;;;;;;5019149;28;20122;-86
2022/04/18 10:40:09;;;;;;;3.30;1.70;;;26.70;55.60;;;;;;5015586;28;20026;-86
2022/04/18 10:42:43;;;;;;;2.67;1.80;;;26.30;56.80;;;;;;5009090;28;20030;-90
2022/04/18 10:45:19;;;;;;;2.22;1.77;;;26.40;56.80;;;;;;5000119;28;20033;-87
2022/04/18 10:48:09;;;;;;;3.15;2.38;;;26.50;56.70;;;;;;4981598;28;20106;-87
2022/04/18 10:50:41;;;;;;;3.05;2.20;;;26.60;56.20;;;;;;4998122;28;20030;-85
2022/04/18 10:53:08;;;;;;;4.33;2.30;;;26.70;55.10;;;;;;4997286;28;20071;-88
2022/04/18 10:55:33;;;;;;;3.20;1.73;;;26.70;56.00;;;;;;5013450;28;20091;-87
2022/04/18 10:58:20;;;;;;;2.53;1.80;;;26.90;56.50;;;;;;5014510;28;20446;-86
2022/04/18 11:00:49;;;;;;;3.00;2.20;;;27.00;57.00;;;;;;4997611;28;20104;-85
2022/04/18 11:03:34;;;;;;;3.35;2.58;;;27.10;54.60;;;;;;5013464;28;20491;-86
2022/04/18 11:06:01;;;;;;;2.65;1.80;;;27.20;52.50;;;;;;5030386;28;20087;-85
2022/04/18 11:08:29;;;;;;;2.83;1.73;;;27.10;52.80;;;;;;4997692;28;20064;-88
2022/04/18 11:11:05;;;;;;;3.10;1.48;;;27.10;52.80;;;;;;4999363;28;20248;-86
2022/04/18 11:13:33;;;;;;;3.67;1.98;;;27.40;52.30;;;;;;5015581;28;20392;-85
2022/04/18 11:16:24;;;;;;;2.88;1.67;;;27.40;52.10;;;;;;5013599;28;20123;-86
2022/04/18 11:19:06;;;;;;;2.55;1.50;;;27.70;53.10;;;;;;5014036;28;20041;-86
2022/04/18 11:21:58;;;;;;;2.20;1.40;;;28.10;53.80;;;;;;5013843;28;20037;-86
2022/04/18 11:24:49;;;;;;;2.20;1.48;;;28.30;53.70;;;;;;5012463;28;20034;-86
2022/04/18 11:27:21;;;;;;;2.80;1.70;;;28.40;50.80;;;;;;5013156;28;20030;-87
2022/04/18 11:29:58;;;;;;;3.75;2.20;;;28.30;52.30;;;;;;4996212;28;20069;-88
2022/04/18 11:32:33;;;;;;;2.47;1.90;;;28.20;48.70;;;;;;4998276;28;20084;-83
2022/04/18 11:35:01;;;;;;;2.15;1.40;;;28.20;50.80;;;;;;5015433;28;20034;-87
2022/04/18 11:37:29;;;;;;;4.35;2.00;;;28.30;51.60;;;;;;5014771;28;20054;-88
2022/04/18 11:40:00;;;;;;;4.93;1.92;;;28.30;50.90;;;;;;4996335;28;20041;-84
2022/04/18 11:42:29;;;;;;;3.85;1.80;;;28.40;51.00;;;;;;4996346;28;20048;-83
2022/04/18 11:45:02;;;;;;;2.50;1.63;;;28.40;50.80;;;;;;5012905;28;20034;-84
2022/04/18 11:47:29;;;;;;;2.75;1.92;;;28.40;51.20;;;;;;4995748;28;20033;-86
2022/04/18 11:49:56;;;;;;;2.67;1.70;;;28.40;50.40;;;;;;5013468;28;20060;-85
2022/04/18 11:52:24;;;;;;;3.05;1.85;;;28.60;51.10;;;;;;5000217;28;20571;-87
2022/04/18 11:54:54;;;;;;;3.38;1.90;;;28.50;49.70;;;;;;5002293;28;20501;-87
2022/04/18 11:57:20;;;;;;;2.88;1.77;;;28.20;50.00;;;;;;5017224;28;20117;-86
2022/04/18 11:59:49;;;;;;;2.47;1.60;;;28.30;51.20;;;;;;4998882;28;20050;-85
2022/04/18 12:07:44;;;;;;;2.53;1.80;;;29.00;50.30;;;;;;5017119;28;20048;-88
2022/04/18 12:10:25;;;;;;;2.47;1.73;;;29.40;50.80;;;;;;5001043;28;20161;-84
2022/04/18 12:12:52;;;;;;;2.92;2.10;;;29.80;51.40;;;;;;5016471;28;20419;-85
2022/04/18 12:15:23;;;;;;;3.67;2.10;;;29.80;49.60;;;;;;4999841;28;20033;-86
2022/04/18 12:17:51;;;;;;;2.67;1.67;;;30.10;50.20;;;;;;5017236;28;20503;-89
2022/04/18 12:20:29;;;;;;;4.50;2.30;;;30.30;50.60;;;;;;5002290;28;20037;-83
2022/04/18 12:23:00;;;;;;;3.30;2.20;;;30.50;49.60;;;;;;4999910;28;20049;-83
2022/04/18 12:25:31;;;;;;;4.53;1.60;;;30.30;49.20;;;;;;5018529;28;20065;-84
2022/04/18 12:28:04;;;;;;;4.45;1.88;;;30.30;49.40;;;;;;4998459;28;20044;-83
2022/04/18 12:30:30;;;;;;;2.85;1.88;;;30.50;49.60;;;;;;4998372;28;20026;-84
2022/04/18 12:33:16;;;;;;;3.03;2.38;;;30.50;50.60;;;;;;5000183;28;20527;-84
2022/04/18 12:35:48;;;;;;;3.92;2.22;;;30.60;49.60;;;;;;4998227;28;20034;-83
2022/04/18 12:38:15;;;;;;;3.38;2.22;;;30.50;50.10;;;;;;4997677;28;20049;-83
2022/04/18 12:40:41;;;;;;;2.50;1.88;;;30.40;50.30;;;;;;5015495;28;20117;-82
2022/04/18 12:43:15;;;;;;;4.18;1.92;;;30.50;50.70;;;;;;5015944;28;20038;-88
2022/04/18 12:45:48;;;;;;;2.65;1.80;;;30.50;51.30;;;;;;5003118;28;20029;-88
2022/04/18 12:48:35;;;;;;;3.10;1.95;;;30.60;51.60;;;;;;5018748;28;20034;-86
2022/04/18 12:51:05;;;;;;;3.03;1.80;;;30.70;50.60;;;;;;5001200;28;20040;-88
2022/04/18 12:53:53;;;;;;;2.80;1.67;;;30.90;49.80;;;;;;5016564;28;20069;-83
2022/04/18 12:56:28;;;;;;;2.42;1.75;;;31.10;50.40;;;;;;4997298;28;20049;-82
2022/04/18 12:58:53;;;;;;;2.33;1.70;;;31.00;49.00;;;;;;4997962;28;20038;-85
2022/04/18 13:01:29;;;;;;;2.67;1.65;;;30.70;48.70;;;;;;5013503;28;20038;-85
2022/04/18 13:03:56;;;;;;;2.28;1.52;;;30.50;49.90;;;;;;5015356;28;20187;-84
2022/04/18 13:06:33;;;;;;;1.88;1.35;;;30.50;50.00;;;;;;4998077;28;20034;-85
2022/04/18 13:09:07;;;;;;;2.33;1.70;;;30.70;50.10;;;;;;5015307;28;20041;-83
2022/04/18 13:11:43;;;;;;;3.47;2.00;;;30.90;49.80;;;;;;4997281;28;20041;-84
2022/04/18 13:14:12;;;;;;;2.00;1.45;;;30.90;49.60;;;;;;4997740;28;20042;-82